createdAt,value
2023-03-29T00:01:45.824Z,5.10
2023-03-29T00:04:13.945Z,4.50
2023-03-29T00:06:42.137Z,4.90
2023-03-29T00:09:10.013Z,5.13
2023-03-29T00:11:36.628Z,5.37
2023-03-29T00:14:03.090Z,5.23
2023-03-29T00:16:29.998Z,5.40
2023-03-29T00:18:57.171Z,5.30
2023-03-29T00:21:23.652Z,5.43
2023-03-29T00:23:50.225Z,5.60
2023-03-29T00:26:16.708Z,4.73
2023-03-29T00:28:43.245Z,4.50
2023-03-29T00:31:12.688Z,5.00
2023-03-29T00:33:39.326Z,4.67
2023-03-29T00:36:07.351Z,4.70
2023-03-29T00:38:34.363Z,4.93
2023-03-29T00:41:01.368Z,5.20
2023-03-29T00:43:27.983Z,4.90
2023-03-29T00:45:54.777Z,4.70
2023-03-29T00:48:25.780Z,4.90
2023-03-29T00:50:55.674Z,4.93
2023-03-29T00:53:48.543Z,5.00
2023-03-29T00:56:35.284Z,5.70
2023-03-29T00:59:05.057Z,4.73
2023-03-29T01:01:45.483Z,4.70
2023-03-29T01:04:20.567Z,4.80
2023-03-29T01:06:57.037Z,5.00
2023-03-29T01:09:27.058Z,4.90
2023-03-29T01:11:57.448Z,5.27
2023-03-29T01:14:42.824Z,5.10
2023-03-29T01:17:09.409Z,5.50
2023-03-29T01:19:43.960Z,5.17
2023-03-29T01:22:28.468Z,4.67
2023-03-29T01:25:16.666Z,5.17
2023-03-29T01:28:02.519Z,4.90
2023-03-29T01:30:34.572Z,4.37
2023-03-29T01:33:15.566Z,4.60
2023-03-29T01:35:46.505Z,4.57
2023-03-29T01:38:23.686Z,4.50
2023-03-29T01:40:50.314Z,4.90
2023-03-29T01:43:39.529Z,4.90
2023-03-29T01:46:25.158Z,4.67
2023-03-29T01:48:59.200Z,5.17
2023-03-29T01:51:38.633Z,4.17
2023-03-29T01:54:12.834Z,4.40
2023-03-29T01:56:43.775Z,4.20
2023-03-29T01:59:18.057Z,4.23
2023-03-29T02:01:50.231Z,4.47
2023-03-29T02:04:22.724Z,4.10
2023-03-29T02:06:54.260Z,3.77
2023-03-29T02:09:21.840Z,4.20
2023-03-29T02:11:51.086Z,4.20
2023-03-29T02:14:17.948Z,3.93
2023-03-29T02:16:46.193Z,3.80
2023-03-29T02:19:14.055Z,4.13
2023-03-29T02:21:51.745Z,4.27
2023-03-29T02:24:22.043Z,4.60
2023-03-29T02:26:49.227Z,4.43
2023-03-29T02:29:16.292Z,4.17
2023-03-29T02:31:47.699Z,4.50
2023-03-29T02:34:19.680Z,4.30
2023-03-29T02:36:50.511Z,4.20
2023-03-29T02:39:18.402Z,4.00
2023-03-29T02:41:49.205Z,4.10
2023-03-29T02:44:20.389Z,4.10
2023-03-29T02:46:55.541Z,4.47
2023-03-29T02:49:22.912Z,4.40
2023-03-29T02:51:53.594Z,4.90
2023-03-29T02:54:25.808Z,3.77
2023-03-29T02:56:57.728Z,4.23
2023-03-29T02:59:24.287Z,4.63
2023-03-29T03:01:52.485Z,4.53
2023-03-29T03:04:20.709Z,4.50
2023-03-29T03:06:47.631Z,3.97
2023-03-29T03:09:14.648Z,4.10
2023-03-29T03:11:41.091Z,4.50
2023-03-29T03:14:07.563Z,4.30
2023-03-29T03:16:34.503Z,4.20
2023-03-29T03:19:01.373Z,4.07
2023-03-29T03:21:28.197Z,3.73
2023-03-29T03:23:55.748Z,4.40
2023-03-29T03:26:24.801Z,4.47
2023-03-29T03:28:51.587Z,4.20
2023-03-29T03:31:19.474Z,4.13
2023-03-29T03:33:45.938Z,4.43
2023-03-29T03:36:13.889Z,4.40
2023-03-29T03:38:41.228Z,4.17
2023-03-29T03:41:08.079Z,4.93
2023-03-29T03:43:35.332Z,4.70
2023-03-29T03:46:02.173Z,5.20
2023-03-29T03:48:29.053Z,4.73
2023-03-29T03:50:58.113Z,4.80
2023-03-29T03:53:27.180Z,4.23
2023-03-29T03:55:57.977Z,4.70
2023-03-29T03:58:24.515Z,5.77
2023-03-29T04:00:51.383Z,5.47
2023-03-29T04:03:18.453Z,5.20
2023-03-29T04:05:46.178Z,4.70
2023-03-29T04:08:14.767Z,5.13
2023-03-29T04:10:41.614Z,5.70
2023-03-29T04:13:08.315Z,5.73
2023-03-29T04:15:38.733Z,5.60
2023-03-29T04:18:07.220Z,6.27
2023-03-29T04:20:34.659Z,5.23
2023-03-29T04:23:01.573Z,6.37
2023-03-29T04:25:28.418Z,6.00
2023-03-29T04:27:55.150Z,6.10
2023-03-29T04:30:21.805Z,6.30
2023-03-29T04:32:48.723Z,5.90
2023-03-29T04:35:15.243Z,6.87
2023-03-29T04:37:41.881Z,7.20
2023-03-29T04:40:10.074Z,6.70
2023-03-29T04:42:37.386Z,6.80
2023-03-29T04:45:04.613Z,6.47
2023-03-29T04:47:31.193Z,6.87
2023-03-29T04:49:57.973Z,6.10
2023-03-29T04:52:24.706Z,7.13
2023-03-29T04:54:51.165Z,7.27
2023-03-29T04:57:17.563Z,6.50
2023-03-29T04:59:44.025Z,7.17
2023-03-29T05:02:10.574Z,6.63
2023-03-29T05:04:37.086Z,7.47
2023-03-29T05:07:04.479Z,6.30
2023-03-29T05:09:32.505Z,7.20
2023-03-29T05:12:00.248Z,7.80
2023-03-29T05:14:26.705Z,7.30
2023-03-29T05:16:53.115Z,7.30
2023-03-29T05:19:21.810Z,7.07
2023-03-29T05:21:50.212Z,6.57
2023-03-29T05:24:17.620Z,8.00
2023-03-29T05:26:44.735Z,8.80
2023-03-29T05:29:12.189Z,7.20
2023-03-29T05:31:39.199Z,7.97
2023-03-29T05:34:06.974Z,8.30
2023-03-29T05:36:33.635Z,8.97
2023-03-29T05:39:00.081Z,9.43
2023-03-29T05:41:26.546Z,8.77
2023-03-29T05:43:53.044Z,9.00
2023-03-29T05:46:19.587Z,8.60
2023-03-29T05:48:46.381Z,8.20
2023-03-29T05:51:13.031Z,8.97
2023-03-29T05:53:39.401Z,10.13
2023-03-29T05:56:08.642Z,10.27
2023-03-29T05:58:36.288Z,9.93
2023-03-29T06:01:04.327Z,9.80
2023-03-29T06:03:30.948Z,9.87
2023-03-29T06:06:00.870Z,10.23
2023-03-29T06:08:28.501Z,10.07
2023-03-29T06:11:03.076Z,10.00
2023-03-29T06:13:33.429Z,10.03
2023-03-29T06:16:00.888Z,9.83
2023-03-29T06:18:27.676Z,10.33
2023-03-29T06:20:54.709Z,9.10
2023-03-29T06:23:22.167Z,9.10
2023-03-29T06:25:51.248Z,9.30
2023-03-29T06:28:19.079Z,9.23
2023-03-29T06:30:46.334Z,9.13
2023-03-29T06:33:14.172Z,9.60
2023-03-29T06:35:46.896Z,10.20
2023-03-29T06:38:14.952Z,10.00
2023-03-29T06:40:43.201Z,9.83
2023-03-29T06:43:10.173Z,9.53
2023-03-29T06:45:37.836Z,10.00
2023-03-29T06:48:05.868Z,9.80
2023-03-29T06:50:32.928Z,10.07
2023-03-29T06:52:59.303Z,10.60
2023-03-29T06:55:27.068Z,10.67
2023-03-29T06:57:54.194Z,10.33
2023-03-29T07:00:28.119Z,9.60
2023-03-29T07:02:57.981Z,9.37
2023-03-29T07:05:27.180Z,9.40
2023-03-29T07:07:59.779Z,9.43
2023-03-29T07:10:32.140Z,9.23
2023-03-29T07:13:01.048Z,9.80
2023-03-29T07:15:28.675Z,9.23
2023-03-29T07:17:56.227Z,8.90
2023-03-29T07:20:23.155Z,9.67
2023-03-29T07:22:52.942Z,9.57
2023-03-29T07:25:24.972Z,9.20
2023-03-29T07:27:54.623Z,8.93
2023-03-29T07:30:24.429Z,10.07
2023-03-29T07:32:52.353Z,9.53
2023-03-29T07:35:18.825Z,9.13
2023-03-29T07:37:46.421Z,9.73
2023-03-29T07:40:24.531Z,9.17
2023-03-29T07:42:54.389Z,9.53
2023-03-29T07:45:26.797Z,8.87
2023-03-29T07:47:57.705Z,8.27
2023-03-29T07:50:24.843Z,8.80
2023-03-29T07:52:51.366Z,9.10
2023-03-29T07:55:18.129Z,9.40
2023-03-29T07:57:44.690Z,9.23
2023-03-29T08:00:16.333Z,9.37
2023-03-29T08:02:44.683Z,8.70
2023-03-29T08:05:12.930Z,9.17
2023-03-29T08:07:41.353Z,8.63
2023-03-29T08:10:21.791Z,8.60
2023-03-29T08:12:49.810Z,8.33
2023-03-29T08:15:16.538Z,9.13
2023-03-29T08:17:43.623Z,8.70
2023-03-29T08:20:13.292Z,9.07
2023-03-29T08:22:40.495Z,8.90
2023-03-29T08:25:08.102Z,9.50
2023-03-29T08:27:35.493Z,8.90
2023-03-29T08:30:01.912Z,9.00
2023-03-29T08:32:28.680Z,8.50
2023-03-29T08:34:55.207Z,9.27
2023-03-29T08:37:21.852Z,9.10
2023-03-29T08:39:48.487Z,9.23
2023-03-29T08:42:42.766Z,9.40
2023-03-29T08:45:13.377Z,8.93
2023-03-29T08:48:02.299Z,9.57
2023-03-29T08:50:38.417Z,8.80
2023-03-29T08:53:13.208Z,8.77
2023-03-29T08:55:45.677Z,8.97
2023-03-29T08:58:20.459Z,8.40
2023-03-29T09:00:50.820Z,9.57
2023-03-29T09:03:26.166Z,9.13
2023-03-29T09:06:06.615Z,9.30
2023-03-29T09:08:38.240Z,9.13
2023-03-29T09:11:35.549Z,9.30
2023-03-29T09:14:24.779Z,9.17
2023-03-29T09:17:18.827Z,8.97
2023-03-29T09:20:04.422Z,9.63
2023-03-29T09:22:54.501Z,9.57
2023-03-29T09:25:52.545Z,9.10
2023-03-29T09:28:43.366Z,9.13
2023-03-29T09:31:21.574Z,9.00
2023-03-29T09:34:01.959Z,9.17
2023-03-29T09:36:43.499Z,8.37
2023-03-29T09:39:14.371Z,8.43
2023-03-29T09:41:50.580Z,8.30
2023-03-29T09:44:30.956Z,8.13
2023-03-29T09:47:19.363Z,9.20
2023-03-29T09:49:49.231Z,9.10
2023-03-29T09:52:17.259Z,8.80
2023-03-29T09:54:44.508Z,8.43
2023-03-29T09:57:17.985Z,8.27
2023-03-29T09:59:46.720Z,8.67
2023-03-29T10:02:14.033Z,8.37
2023-03-29T10:04:42.891Z,7.93
2023-03-29T10:07:18.171Z,8.17
2023-03-29T10:09:46.479Z,8.17
2023-03-29T10:12:13.695Z,8.07
2023-03-29T10:14:46.407Z,7.80
2023-03-29T10:17:21.729Z,7.80
2023-03-29T10:20:00.359Z,8.73
2023-03-29T10:22:37.830Z,8.10
2023-03-29T10:25:09.326Z,8.37
2023-03-29T10:27:36.109Z,7.80
2023-03-29T10:30:12.906Z,7.50
2023-03-29T10:32:40.586Z,8.20
2023-03-29T10:35:19.075Z,7.87
2023-03-29T10:37:50.357Z,7.53
2023-03-29T10:40:25.695Z,7.50
2023-03-29T10:42:53.938Z,7.70
2023-03-29T10:45:35.551Z,7.73
2023-03-29T10:48:06.821Z,7.47
2023-03-29T10:50:36.188Z,7.77
2023-03-29T10:53:04.145Z,7.80
2023-03-29T10:55:37.253Z,7.73
2023-03-29T10:58:23.604Z,8.07
2023-03-29T11:00:56.288Z,8.07
2023-03-29T11:03:40.308Z,8.70
2023-03-29T11:06:22.351Z,8.20
2023-03-29T11:08:59.240Z,7.97
2023-03-29T11:11:49.305Z,8.43
2023-03-29T11:14:36.055Z,7.93
2023-03-29T11:17:21.458Z,8.10
2023-03-29T11:20:05.373Z,7.80
2023-03-29T11:22:49.377Z,7.70
2023-03-29T11:26:02.504Z,7.90
2023-03-29T11:28:54.543Z,7.53
2023-03-29T11:31:27.761Z,7.80
2023-03-29T11:34:31.610Z,7.40
2023-03-29T11:37:36.412Z,7.43
2023-03-29T11:40:06.939Z,7.90
2023-03-29T11:42:38.325Z,7.57
2023-03-29T11:45:06.069Z,8.03
2023-03-29T11:47:36.611Z,7.30
2023-03-29T11:50:25.455Z,8.23
2023-03-29T11:52:58.800Z,7.27
2023-03-29T11:55:27.929Z,7.83
2023-03-29T11:58:17.520Z,7.53
2023-03-29T12:00:58.087Z,7.77
2023-03-29T12:03:47.306Z,7.37
2023-03-29T12:06:32.445Z,7.70
2023-03-29T12:09:16.715Z,7.70
2023-03-29T12:11:52.949Z,7.57
2023-03-29T12:14:39.015Z,8.00
2023-03-29T12:17:12.508Z,7.57
2023-03-29T12:19:47.409Z,7.93
2023-03-29T12:22:13.789Z,7.80
2023-03-29T12:24:42.991Z,7.23
2023-03-29T12:27:19.814Z,7.60
2023-03-29T12:30:18.559Z,7.03
2023-03-29T12:33:15.298Z,7.37
2023-03-29T12:36:04.493Z,6.60
2023-03-29T12:38:32.822Z,7.80
2023-03-29T12:41:02.289Z,7.90
2023-03-29T12:43:37.653Z,7.10
2023-03-29T12:46:10.049Z,7.30
2023-03-29T12:48:39.356Z,6.93
2023-03-29T12:51:14.462Z,7.40
2023-03-29T12:53:45.069Z,7.40
2023-03-29T12:56:19.575Z,7.60
2023-03-29T12:59:07.040Z,7.47
2023-03-29T13:01:41.347Z,6.93
2023-03-29T13:04:18.437Z,8.53
2023-03-29T13:07:03.381Z,7.83
2023-03-29T13:09:31.201Z,7.50
2023-03-29T13:12:09.642Z,7.13
2023-03-29T13:14:42.557Z,7.53
2023-03-29T13:17:20.143Z,7.13
2023-03-29T13:19:52.554Z,7.07
2023-03-29T13:22:44.214Z,7.10
2023-03-29T13:25:32.535Z,6.97
2023-03-29T13:28:24.094Z,7.30
2023-03-29T13:31:18.865Z,7.10
2023-03-29T13:34:02.109Z,6.97
2023-03-29T13:36:53.597Z,7.20
2023-03-29T13:39:24.438Z,6.87
2023-03-29T13:41:53.463Z,7.00
2023-03-29T13:44:22.888Z,8.00
2023-03-29T13:47:16.454Z,7.07
2023-03-29T13:49:50.384Z,7.23
2023-03-29T13:52:26.769Z,6.67
2023-03-29T13:55:04.099Z,7.37
2023-03-29T13:57:39.494Z,6.77
2023-03-29T14:00:36.787Z,7.47
2023-03-29T14:03:09.441Z,7.70
2023-03-29T14:05:39.757Z,6.83
2023-03-29T14:08:25.381Z,6.60
2023-03-29T14:10:53.567Z,6.50
2023-03-29T14:13:23.922Z,7.30
2023-03-29T14:15:55.189Z,7.37
2023-03-29T14:18:25.507Z,6.93
2023-03-29T14:20:55.053Z,7.47
2023-03-29T14:23:24.462Z,7.10
2023-03-29T14:25:51.134Z,7.33
2023-03-29T14:28:29.023Z,7.23
2023-03-29T14:30:56.238Z,7.20
2023-03-29T14:33:27.939Z,7.17
2023-03-29T14:36:00.131Z,7.23
2023-03-29T14:38:27.390Z,7.10
2023-03-29T14:40:58.616Z,6.63
2023-03-29T14:43:29.773Z,7.33
2023-03-29T14:45:57.338Z,6.87
2023-03-29T14:48:24.899Z,7.27
2023-03-29T14:50:51.667Z,7.33
2023-03-29T14:53:23.377Z,7.87
2023-03-29T14:55:52.432Z,7.10
2023-03-29T14:58:32.695Z,7.17
2023-03-29T15:01:14.746Z,7.20
2023-03-29T15:03:54.192Z,7.40
2023-03-29T15:06:22.910Z,6.93
2023-03-29T15:09:03.621Z,7.03
2023-03-29T15:11:32.890Z,7.10
2023-03-29T15:14:08.546Z,7.07
2023-03-29T15:16:40.478Z,6.83
2023-03-29T15:19:07.204Z,6.80
2023-03-29T15:21:35.657Z,7.67
2023-03-29T15:24:03.999Z,7.37
2023-03-29T15:26:33.953Z,7.27
2023-03-29T15:29:09.157Z,7.70
2023-03-29T15:31:38.582Z,7.00
2023-03-29T15:34:13.315Z,6.53
2023-03-29T15:36:42.533Z,7.23
2023-03-29T15:39:13.119Z,7.37
2023-03-29T15:41:40.468Z,6.90
2023-03-29T15:44:07.160Z,7.23
2023-03-29T15:46:33.793Z,7.37
2023-03-29T15:49:00.394Z,7.33
2023-03-29T15:51:26.988Z,7.23
2023-03-29T15:53:53.382Z,7.10
2023-03-29T15:56:23.249Z,6.70
2023-03-29T15:58:49.861Z,6.77
2023-03-29T16:01:33.634Z,7.10
2023-03-29T16:04:01.832Z,7.10
2023-03-29T16:06:28.564Z,5.93
2023-03-29T16:08:57.238Z,6.90
2023-03-29T16:11:24.200Z,7.00
2023-03-29T16:13:51.359Z,6.50
2023-03-29T16:16:18.114Z,6.27
2023-03-29T16:18:44.635Z,6.70
2023-03-29T16:21:14.233Z,7.00
2023-03-29T16:23:41.662Z,7.10
2023-03-29T16:26:09.233Z,7.13
2023-03-29T16:28:36.895Z,7.23
2023-03-29T16:31:04.759Z,7.77
2023-03-29T16:33:31.145Z,7.10
2023-03-29T16:35:57.578Z,7.27
2023-03-29T16:38:24.360Z,7.37
2023-03-29T16:40:50.793Z,7.27
2023-03-29T16:43:18.601Z,7.20
2023-03-29T16:45:45.399Z,7.60
2023-03-29T16:48:17.960Z,7.97
2023-03-29T16:50:45.286Z,7.30
2023-03-29T16:53:11.722Z,6.70
2023-03-29T16:55:38.168Z,7.37
2023-03-29T16:58:05.478Z,8.10
2023-03-29T17:00:33.165Z,7.73
2023-03-29T17:03:02.600Z,7.40
2023-03-29T17:05:29.229Z,7.87
2023-03-29T17:07:56.207Z,7.57
2023-03-29T17:10:23.305Z,7.47
2023-03-29T17:12:49.805Z,7.60
2023-03-29T17:15:17.274Z,8.13
2023-03-29T17:17:43.677Z,7.80
2023-03-29T17:20:12.220Z,7.03
2023-03-29T17:22:40.272Z,6.90
2023-03-29T17:25:07.999Z,7.40
2023-03-29T17:27:35.638Z,8.20
2023-03-29T17:30:02.118Z,8.03
2023-03-29T17:32:28.604Z,8.37
2023-03-29T17:34:55.231Z,7.57
2023-03-29T17:37:22.798Z,7.40
2023-03-29T17:39:49.265Z,7.50
2023-03-29T17:42:17.192Z,8.50
2023-03-29T17:44:43.634Z,8.50
2023-03-29T17:47:10.111Z,7.73
2023-03-29T17:49:36.529Z,7.97
2023-03-29T17:52:04.371Z,7.97
2023-03-29T17:54:31.119Z,8.40
2023-03-29T17:56:57.826Z,7.50
2023-03-29T17:59:25.723Z,8.53
2023-03-29T18:01:52.157Z,7.77
2023-03-29T18:04:18.541Z,8.23
2023-03-29T18:06:45.649Z,8.50
2023-03-29T18:09:13.087Z,9.17
2023-03-29T18:11:39.472Z,9.03
2023-03-29T18:14:05.965Z,9.27
2023-03-29T18:16:32.474Z,9.50
2023-03-29T18:18:58.997Z,8.50
2023-03-29T18:21:26.247Z,8.60
2023-03-29T18:23:55.523Z,8.47
2023-03-29T18:26:23.408Z,9.00
2023-03-29T18:28:50.713Z,8.93
2023-03-29T18:31:19.577Z,8.40
2023-03-29T18:33:46.806Z,9.13
2023-03-29T18:36:13.841Z,10.00
2023-03-29T18:38:43.067Z,9.07
2023-03-29T18:41:12.273Z,8.93
2023-03-29T18:43:40.704Z,9.13
2023-03-29T18:46:08.288Z,8.87
2023-03-29T18:48:41.877Z,9.10
2023-03-29T18:51:10.846Z,8.93
2023-03-29T18:53:41.076Z,9.13
2023-03-29T18:56:08.007Z,9.63
2023-03-29T18:58:34.728Z,9.20
2023-03-29T19:01:05.130Z,9.17
2023-03-29T19:03:35.014Z,9.70
2023-03-29T19:06:02.982Z,9.37
2023-03-29T19:08:29.723Z,8.77
2023-03-29T19:11:04.728Z,9.70
2023-03-29T19:13:31.613Z,10.33
2023-03-29T19:15:58.121Z,9.57
2023-03-29T19:18:25.487Z,9.37
2023-03-29T19:20:54.037Z,9.53
2023-03-29T19:23:22.213Z,9.47
2023-03-29T19:25:53.787Z,10.10
2023-03-29T19:28:20.621Z,10.20
2023-03-29T19:30:47.384Z,10.00
2023-03-29T19:33:14.534Z,10.43
2023-03-29T19:35:41.481Z,9.73
2023-03-29T19:38:08.083Z,10.73
2023-03-29T19:40:35.104Z,8.93
2023-03-29T19:43:01.507Z,9.50
2023-03-29T19:45:28.329Z,9.33
2023-03-29T19:47:55.555Z,11.00
2023-03-29T19:50:23.136Z,10.30
2023-03-29T19:52:49.877Z,10.47
2023-03-29T19:55:16.538Z,10.10
2023-03-29T19:57:43.286Z,10.03
2023-03-29T20:00:14.805Z,10.20
2023-03-29T20:02:42.550Z,9.70
2023-03-29T20:05:09.422Z,9.43
2023-03-29T20:07:36.442Z,9.53
2023-03-29T20:10:03.048Z,8.93
2023-03-29T20:12:29.429Z,9.50
2023-03-29T20:14:55.852Z,9.67
2023-03-29T20:17:22.244Z,9.73
2023-03-29T20:19:48.654Z,9.87
2023-03-29T20:22:15.026Z,9.90
2023-03-29T20:24:41.442Z,9.70
2023-03-29T20:27:08.597Z,10.07
2023-03-29T20:29:35.500Z,9.63
2023-03-29T20:32:02.152Z,10.07
2023-03-29T20:34:29.190Z,10.37
2023-03-29T20:37:00.587Z,11.23
2023-03-29T20:39:28.308Z,10.33
2023-03-29T20:41:54.746Z,10.83
2023-03-29T20:44:26.409Z,10.90
2023-03-29T20:47:06.616Z,11.13
2023-03-29T20:49:39.109Z,10.77
2023-03-29T20:52:10.628Z,11.77
2023-03-29T20:54:37.321Z,11.87
2023-03-29T20:57:05.071Z,12.43
2023-03-29T20:59:31.536Z,12.03
2023-03-29T21:02:00.058Z,12.30
2023-03-29T21:04:28.230Z,11.83
2023-03-29T21:06:56.068Z,12.73
2023-03-29T21:09:23.820Z,12.60
2023-03-29T21:11:50.734Z,12.40
2023-03-29T21:14:22.985Z,12.80
2023-03-29T21:16:50.204Z,12.40
2023-03-29T21:19:16.908Z,13.50
2023-03-29T21:21:44.920Z,13.40
2023-03-29T21:24:13.704Z,12.70
2023-03-29T21:26:41.278Z,13.30
2023-03-29T21:29:08.018Z,14.17
2023-03-29T21:31:34.918Z,14.23
2023-03-29T21:34:01.375Z,14.07
2023-03-29T21:36:28.007Z,14.37
2023-03-29T21:38:54.683Z,15.23
2023-03-29T21:41:21.865Z,14.27
2023-03-29T21:43:48.323Z,13.70
2023-03-29T21:46:15.164Z,14.47
2023-03-29T21:48:41.829Z,14.33
2023-03-29T21:51:08.716Z,14.93
2023-03-29T21:53:35.290Z,15.97
2023-03-29T21:56:01.692Z,15.70
2023-03-29T21:58:28.083Z,14.50
2023-03-29T22:00:56.162Z,16.00
2023-03-29T22:03:23.043Z,14.73
2023-03-29T22:06:01.742Z,15.27
2023-03-29T22:08:28.905Z,15.87
2023-03-29T22:10:57.007Z,15.37
2023-03-29T22:13:25.288Z,15.10
2023-03-29T22:15:59.480Z,14.20
2023-03-29T22:18:42.282Z,15.40
2023-03-29T22:21:22.435Z,15.17
2023-03-29T22:23:50.885Z,14.33
2023-03-29T22:26:20.000Z,14.13
2023-03-29T22:28:46.404Z,14.03
2023-03-29T22:31:19.949Z,13.90
2023-03-29T22:33:46.638Z,13.50
2023-03-29T22:36:18.097Z,15.40
2023-03-29T22:38:46.063Z,14.80
2023-03-29T22:41:13.748Z,14.63
2023-03-29T22:43:41.026Z,15.87
2023-03-29T22:46:09.587Z,16.43
2023-03-29T22:48:36.303Z,15.80
2023-03-29T22:51:03.108Z,17.13
2023-03-29T22:53:30.056Z,17.00
2023-03-29T22:55:56.490Z,16.83
2023-03-29T22:58:23.299Z,17.23
2023-03-29T23:00:49.752Z,18.80
2023-03-29T23:03:16.869Z,17.93
2023-03-29T23:05:50.259Z,17.53
2023-03-29T23:08:17.157Z,17.43
2023-03-29T23:10:46.111Z,18.80
2023-03-29T23:13:13.888Z,18.03
2023-03-29T23:15:47.233Z,19.23
2023-03-29T23:18:18.469Z,17.73
2023-03-29T23:20:47.107Z,18.47
2023-03-29T23:23:15.700Z,18.07
2023-03-29T23:25:47.444Z,18.33
2023-03-29T23:28:15.891Z,17.47
2023-03-29T23:30:42.975Z,18.30
2023-03-29T23:33:10.510Z,18.13
2023-03-29T23:35:37.427Z,17.90
2023-03-29T23:38:05.462Z,17.37
2023-03-29T23:40:33.149Z,18.73
2023-03-29T23:42:59.927Z,18.80
2023-03-29T23:45:27.982Z,18.90
2023-03-29T23:47:55.220Z,18.10
2023-03-29T23:50:22.584Z,18.03
2023-03-29T23:52:51.770Z,16.90
2023-03-29T23:55:18.617Z,16.60
2023-03-29T23:57:45.044Z,16.63
